Turks and Caicos Islands Weather

[source: ADDS]
METAR
MBPV 271015Z 2712/2812 VRB02KT 9999 SCT018 BECMG 2712/2714 11010KT MBGT 271015Z 2712/2812 VRB02KT 9999 SCT018 BECMG 2712/2714 11010KT TAF
MBPV 271015Z 2712/2812 VRB02KT 9999 SCT018 BECMG 2712/2714 11010KT =
MBGT 271015Z 2712/2812 VRB02KT 9999 SCT018 BECMG 2712/2714 11010KT =
SR / SS: 10:08 / 23:36 UTC (MBPV 2016-06-27)
E-mail Print PDF
Weather